sensor_id;sensor_type;location;lat;lon;timestamp;P1;durP1;ratioP1;P2;durP2;ratioP2
53714;SDS011;39608;55.630;37.864;2023-04-25T00:03:59;13.20;;;5.53;;
53714;SDS011;39608;55.630;37.864;2023-04-25T00:09:01;13.13;;;5.95;;
53714;SDS011;39608;55.630;37.864;2023-04-25T00:14:04;18.15;;;5.63;;
53714;SDS011;39608;55.630;37.864;2023-04-25T00:19:08;19.48;;;5.22;;
53714;SDS011;39608;55.630;37.864;2023-04-25T00:24:10;17.73;;;5.97;;
53714;SDS011;39608;55.630;37.864;2023-04-25T00:29:12;9.95;;;5.05;;
53714;SDS011;39608;55.630;37.864;2023-04-25T00:34:15;12.55;;;5.82;;
53714;SDS011;39608;55.630;37.864;2023-04-25T00:39:17;19.88;;;7.60;;
53714;SDS011;39608;55.630;37.864;2023-04-25T00:44:20;16.23;;;8.55;;
53714;SDS011;39608;55.630;37.864;2023-04-25T00:49:23;19.52;;;10.65;;
53714;SDS011;39608;55.630;37.864;2023-04-25T00:54:25;23.00;;;10.45;;
53714;SDS011;39608;55.630;37.864;2023-04-25T00:59:27;22.40;;;8.90;;
53714;SDS011;39608;55.630;37.864;2023-04-25T01:04:31;19.88;;;9.23;;
53714;SDS011;39608;55.630;37.864;2023-04-25T01:09:33;15.73;;;7.72;;
53714;SDS011;39608;55.630;37.864;2023-04-25T01:14:35;10.88;;;5.85;;
53714;SDS011;39608;55.630;37.864;2023-04-25T01:19:39;10.68;;;5.38;;
53714;SDS011;39608;55.630;37.864;2023-04-25T01:24:42;10.27;;;5.32;;
53714;SDS011;39608;55.630;37.864;2023-04-25T01:29:44;8.48;;;4.40;;
53714;SDS011;39608;55.630;37.864;2023-04-25T01:34:47;16.85;;;5.20;;
53714;SDS011;39608;55.630;37.864;2023-04-25T01:39:50;12.25;;;5.05;;
53714;SDS011;39608;55.630;37.864;2023-04-25T01:44:53;9.07;;;5.60;;
53714;SDS011;39608;55.630;37.864;2023-04-25T01:49:55;16.77;;;6.07;;
53714;SDS011;39608;55.630;37.864;2023-04-25T01:54:59;16.42;;;5.65;;
53714;SDS011;39608;55.630;37.864;2023-04-25T02:00:05;10.80;;;4.60;;
53714;SDS011;39608;55.630;37.864;2023-04-25T02:05:08;16.15;;;5.45;;
53714;SDS011;39608;55.630;37.864;2023-04-25T02:10:12;12.27;;;5.47;;
53714;SDS011;39608;55.630;37.864;2023-04-25T02:15:14;17.50;;;6.20;;
53714;SDS011;39608;55.630;37.864;2023-04-25T02:20:16;24.98;;;6.82;;
53714;SDS011;39608;55.630;37.864;2023-04-25T02:25:20;10.40;;;5.10;;
53714;SDS011;39608;55.630;37.864;2023-04-25T02:30:22;14.07;;;6.45;;
53714;SDS011;39608;55.630;37.864;2023-04-25T02:35:24;8.75;;;4.40;;
53714;SDS011;39608;55.630;37.864;2023-04-25T02:40:27;11.50;;;4.28;;
53714;SDS011;39608;55.630;37.864;2023-04-25T02:45:30;14.52;;;4.07;;
53714;SDS011;39608;55.630;37.864;2023-04-25T02:50:32;16.67;;;4.00;;
53714;SDS011;39608;55.630;37.864;2023-04-25T02:55:35;10.38;;;4.43;;
53714;SDS011;39608;55.630;37.864;2023-04-25T03:00:37;10.73;;;4.13;;
53714;SDS011;39608;55.630;37.864;2023-04-25T03:05:39;13.38;;;4.20;;
53714;SDS011;39608;55.630;37.864;2023-04-25T03:10:42;9.73;;;4.00;;
53714;SDS011;39608;55.630;37.864;2023-04-25T03:15:45;23.88;;;4.65;;
53714;SDS011;39608;55.630;37.864;2023-04-25T03:20:47;13.13;;;5.40;;
53714;SDS011;39608;55.630;37.864;2023-04-25T03:25:50;12.98;;;4.50;;
53714;SDS011;39608;55.630;37.864;2023-04-25T03:30:52;12.55;;;4.72;;
53714;SDS011;39608;55.630;37.864;2023-04-25T03:35:54;8.73;;;4.78;;
53714;SDS011;39608;55.630;37.864;2023-04-25T03:40:57;13.65;;;3.97;;
53714;SDS011;39608;55.630;37.864;2023-04-25T03:46:00;10.60;;;3.95;;
53714;SDS011;39608;55.630;37.864;2023-04-25T03:51:02;10.82;;;4.20;;
53714;SDS011;39608;55.630;37.864;2023-04-25T03:56:06;6.70;;;4.30;;
53714;SDS011;39608;55.630;37.864;2023-04-25T04:01:08;11.52;;;4.40;;
53714;SDS011;39608;55.630;37.864;2023-04-25T04:06:10;9.35;;;4.05;;
53714;SDS011;39608;55.630;37.864;2023-04-25T04:11:14;13.43;;;3.95;;
53714;SDS011;39608;55.630;37.864;2023-04-25T04:16:16;15.43;;;5.88;;
53714;SDS011;39608;55.630;37.864;2023-04-25T04:21:19;11.07;;;4.57;;
53714;SDS011;39608;55.630;37.864;2023-04-25T04:26:22;12.63;;;4.63;;
53714;SDS011;39608;55.630;37.864;2023-04-25T04:31:24;14.85;;;5.43;;
53714;SDS011;39608;55.630;37.864;2023-04-25T04:36:26;18.30;;;5.60;;
53714;SDS011;39608;55.630;37.864;2023-04-25T04:41:30;9.90;;;5.82;;
53714;SDS011;39608;55.630;37.864;2023-04-25T04:46:32;8.57;;;4.93;;
53714;SDS011;39608;55.630;37.864;2023-04-25T04:51:37;11.27;;;5.07;;
53714;SDS011;39608;55.630;37.864;2023-04-25T04:56:42;8.90;;;4.75;;
53714;SDS011;39608;55.630;37.864;2023-04-25T05:01:44;15.45;;;5.63;;
53714;SDS011;39608;55.630;37.864;2023-04-25T05:06:47;11.82;;;5.22;;
53714;SDS011;39608;55.630;37.864;2023-04-25T05:11:50;7.90;;;4.93;;
53714;SDS011;39608;55.630;37.864;2023-04-25T05:16:52;10.80;;;4.70;;
53714;SDS011;39608;55.630;37.864;2023-04-25T05:21:54;10.45;;;4.68;;
53714;SDS011;39608;55.630;37.864;2023-04-25T05:26:58;15.35;;;4.95;;
53714;SDS011;39608;55.630;37.864;2023-04-25T05:32:00;9.10;;;4.03;;
53714;SDS011;39608;55.630;37.864;2023-04-25T05:37:02;14.85;;;4.57;;
53714;SDS011;39608;55.630;37.864;2023-04-25T05:42:05;15.75;;;3.92;;
53714;SDS011;39608;55.630;37.864;2023-04-25T05:52:19;10.63;;;3.42;;
53714;SDS011;39608;55.630;37.864;2023-04-25T06:02:30;20.65;;;3.63;;
53714;SDS011;39608;55.630;37.864;2023-04-25T06:07:32;13.70;;;3.22;;
53714;SDS011;39608;55.630;37.864;2023-04-25T06:12:36;13.43;;;4.05;;
53714;SDS011;39608;55.630;37.864;2023-04-25T06:17:38;6.28;;;2.90;;
53714;SDS011;39608;55.630;37.864;2023-04-25T06:22:40;9.30;;;2.75;;
53714;SDS011;39608;55.630;37.864;2023-04-25T06:27:44;16.40;;;3.03;;
53714;SDS011;39608;55.630;37.864;2023-04-25T06:32:47;11.30;;;3.00;;
53714;SDS011;39608;55.630;37.864;2023-04-25T06:37:49;15.15;;;2.97;;
53714;SDS011;39608;55.630;37.864;2023-04-25T06:42:52;9.68;;;2.05;;
53714;SDS011;39608;55.630;37.864;2023-04-25T06:47:54;3.17;;;1.77;;
53714;SDS011;39608;55.630;37.864;2023-04-25T06:52:56;4.78;;;1.92;;
53714;SDS011;39608;55.630;37.864;2023-04-25T06:57:59;5.22;;;1.98;;
53714;SDS011;39608;55.630;37.864;2023-04-25T07:03:01;3.78;;;2.05;;
53714;SDS011;39608;55.630;37.864;2023-04-25T07:08:06;4.32;;;1.88;;
53714;SDS011;39608;55.630;37.864;2023-04-25T07:13:09;6.68;;;2.50;;
53714;SDS011;39608;55.630;37.864;2023-04-25T07:18:11;5.85;;;2.10;;
53714;SDS011;39608;55.630;37.864;2023-04-25T07:23:14;7.53;;;2.20;;
53714;SDS011;39608;55.630;37.864;2023-04-25T07:28:18;6.57;;;2.05;;
53714;SDS011;39608;55.630;37.864;2023-04-25T07:33:20;7.50;;;2.20;;
53714;SDS011;39608;55.630;37.864;2023-04-25T07:38:23;5.88;;;2.25;;
53714;SDS011;39608;55.630;37.864;2023-04-25T07:43:27;10.05;;;2.53;;
53714;SDS011;39608;55.630;37.864;2023-04-25T07:48:29;9.07;;;2.53;;
53714;SDS011;39608;55.630;37.864;2023-04-25T07:53:31;3.15;;;2.00;;
53714;SDS011;39608;55.630;37.864;2023-04-25T07:58:36;5.65;;;2.47;;
53714;SDS011;39608;55.630;37.864;2023-04-25T08:03:38;8.10;;;2.13;;
53714;SDS011;39608;55.630;37.864;2023-04-25T08:08:40;7.95;;;2.78;;
53714;SDS011;39608;55.630;37.864;2023-04-25T08:13:43;9.77;;;2.53;;
53714;SDS011;39608;55.630;37.864;2023-04-25T08:18:45;11.60;;;2.38;;
53714;SDS011;39608;55.630;37.864;2023-04-25T08:23:47;3.65;;;2.38;;
53714;SDS011;39608;55.630;37.864;2023-04-25T08:28:51;3.97;;;2.28;;
53714;SDS011;39608;55.630;37.864;2023-04-25T08:33:53;5.00;;;1.95;;
53714;SDS011;39608;55.630;37.864;2023-04-25T08:38:55;2.95;;;2.13;;
53714;SDS011;39608;55.630;37.864;2023-04-25T08:43:58;4.28;;;1.98;;
53714;SDS011;39608;55.630;37.864;2023-04-25T08:49:02;9.70;;;1.80;;
53714;SDS011;39608;55.630;37.864;2023-04-25T08:54:06;5.05;;;1.75;;
53714;SDS011;39608;55.630;37.864;2023-04-25T08:59:12;6.63;;;1.90;;
53714;SDS011;39608;55.630;37.864;2023-04-25T09:04:14;7.78;;;1.30;;
53714;SDS011;39608;55.630;37.864;2023-04-25T09:09:17;6.38;;;2.15;;
53714;SDS011;39608;55.630;37.864;2023-04-25T09:14:20;15.18;;;2.78;;
53714;SDS011;39608;55.630;37.864;2023-04-25T09:19:28;4.30;;;1.85;;
53714;SDS011;39608;55.630;37.864;2023-04-25T09:24:35;3.10;;;1.52;;
53714;SDS011;39608;55.630;37.864;2023-04-25T09:29:40;3.65;;;1.52;;
53714;SDS011;39608;55.630;37.864;2023-04-25T09:34:43;3.70;;;1.67;;
53714;SDS011;39608;55.630;37.864;2023-04-25T09:39:48;4.55;;;1.55;;
53714;SDS011;39608;55.630;37.864;2023-04-25T09:44:53;1.50;;;1.40;;
53714;SDS011;39608;55.630;37.864;2023-04-25T09:49:56;1.67;;;1.23;;
53714;SDS011;39608;55.630;37.864;2023-04-25T09:54:58;1.42;;;1.02;;
53714;SDS011;39608;55.630;37.864;2023-04-25T10:00:02;5.10;;;1.30;;
53714;SDS011;39608;55.630;37.864;2023-04-25T10:05:11;4.15;;;2.15;;
53714;SDS011;39608;55.630;37.864;2023-04-25T10:10:13;5.40;;;1.98;;
53714;SDS011;39608;55.630;37.864;2023-04-25T10:15:17;4.38;;;1.73;;
53714;SDS011;39608;55.630;37.864;2023-04-25T10:20:20;6.40;;;1.50;;
53714;SDS011;39608;55.630;37.864;2023-04-25T10:25:23;4.25;;;1.30;;
53714;SDS011;39608;55.630;37.864;2023-04-25T10:30:27;11.82;;;1.63;;
53714;SDS011;39608;55.630;37.864;2023-04-25T10:35:29;5.28;;;1.20;;
53714;SDS011;39608;55.630;37.864;2023-04-25T10:40:32;2.10;;;1.10;;
53714;SDS011;39608;55.630;37.864;2023-04-25T10:51:08;4.70;;;1.25;;
53714;SDS011;39608;55.630;37.864;2023-04-25T10:56:16;5.15;;;1.38;;
53714;SDS011;39608;55.630;37.864;2023-04-25T11:01:21;9.60;;;1.17;;
53714;SDS011;39608;55.630;37.864;2023-04-25T11:06:27;4.43;;;1.50;;
53714;SDS011;39608;55.630;37.864;2023-04-25T11:11:33;6.32;;;1.70;;
53714;SDS011;39608;55.630;37.864;2023-04-25T11:16:39;6.47;;;1.95;;
53714;SDS011;39608;55.630;37.864;2023-04-25T11:21:41;3.97;;;1.60;;
53714;SDS011;39608;55.630;37.864;2023-04-25T11:26:43;3.22;;;1.55;;
53714;SDS011;39608;55.630;37.864;2023-04-25T11:31:50;3.10;;;1.48;;
53714;SDS011;39608;55.630;37.864;2023-04-25T11:36:52;7.45;;;1.35;;
53714;SDS011;39608;55.630;37.864;2023-04-25T11:41:54;5.88;;;1.75;;
53714;SDS011;39608;55.630;37.864;2023-04-25T11:46:58;4.63;;;1.30;;
53714;SDS011;39608;55.630;37.864;2023-04-25T11:52:00;3.28;;;1.67;;
53714;SDS011;39608;55.630;37.864;2023-04-25T11:57:02;3.20;;;1.52;;
53714;SDS011;39608;55.630;37.864;2023-04-25T12:02:07;2.08;;;1.58;;
53714;SDS011;39608;55.630;37.864;2023-04-25T12:07:10;5.63;;;2.13;;
53714;SDS011;39608;55.630;37.864;2023-04-25T12:12:17;3.30;;;1.70;;
53714;SDS011;39608;55.630;37.864;2023-04-25T12:17:21;4.35;;;1.73;;
53714;SDS011;39608;55.630;37.864;2023-04-25T12:22:24;9.93;;;1.60;;
53714;SDS011;39608;55.630;37.864;2023-04-25T12:27:28;4.75;;;1.92;;
53714;SDS011;39608;55.630;37.864;2023-04-25T12:32:36;3.13;;;1.70;;
53714;SDS011;39608;55.630;37.864;2023-04-25T12:37:39;4.95;;;2.00;;
53714;SDS011;39608;55.630;37.864;2023-04-25T12:42:41;7.78;;;1.95;;
53714;SDS011;39608;55.630;37.864;2023-04-25T12:47:46;2.22;;;1.83;;
53714;SDS011;39608;55.630;37.864;2023-04-25T12:52:48;6.43;;;1.63;;
53714;SDS011;39608;55.630;37.864;2023-04-25T12:57:51;5.63;;;1.95;;
53714;SDS011;39608;55.630;37.864;2023-04-25T13:02:55;6.57;;;2.00;;
53714;SDS011;39608;55.630;37.864;2023-04-25T13:07:57;4.35;;;1.70;;
53714;SDS011;39608;55.630;37.864;2023-04-25T13:12:59;3.45;;;1.88;;
53714;SDS011;39608;55.630;37.864;2023-04-25T13:18:04;9.63;;;1.92;;
53714;SDS011;39608;55.630;37.864;2023-04-25T13:23:07;4.07;;;1.45;;
53714;SDS011;39608;55.630;37.864;2023-04-25T13:28:09;8.27;;;1.70;;
53714;SDS011;39608;55.630;37.864;2023-04-25T13:33:12;3.55;;;1.85;;
53714;SDS011;39608;55.630;37.864;2023-04-25T13:38:14;10.85;;;2.17;;
53714;SDS011;39608;55.630;37.864;2023-04-25T13:43:16;3.40;;;1.85;;
53714;SDS011;39608;55.630;37.864;2023-04-25T13:48:21;5.03;;;2.10;;
53714;SDS011;39608;55.630;37.864;2023-04-25T13:53:23;8.50;;;1.95;;
53714;SDS011;39608;55.630;37.864;2023-04-25T13:58:25;4.32;;;2.00;;
53714;SDS011;39608;55.630;37.864;2023-04-25T14:03:29;7.70;;;2.35;;
53714;SDS011;39608;55.630;37.864;2023-04-25T14:08:31;1.83;;;1.63;;
53714;SDS011;39608;55.630;37.864;2023-04-25T14:13:33;3.08;;;1.88;;
53714;SDS011;39608;55.630;37.864;2023-04-25T14:18:37;4.78;;;1.98;;
53714;SDS011;39608;55.630;37.864;2023-04-25T14:23:39;6.00;;;2.40;;
53714;SDS011;39608;55.630;37.864;2023-04-25T14:28:41;6.30;;;2.25;;
53714;SDS011;39608;55.630;37.864;2023-04-25T14:33:44;7.60;;;2.33;;
53714;SDS011;39608;55.630;37.864;2023-04-25T14:38:46;6.55;;;2.35;;
53714;SDS011;39608;55.630;37.864;2023-04-25T14:43:48;5.72;;;2.35;;
53714;SDS011;39608;55.630;37.864;2023-04-25T14:48:52;6.28;;;1.65;;
53714;SDS011;39608;55.630;37.864;2023-04-25T14:53:56;3.47;;;1.85;;
53714;SDS011;39608;55.630;37.864;2023-04-25T14:58:58;5.22;;;1.95;;
53714;SDS011;39608;55.630;37.864;2023-04-25T15:04:02;4.25;;;2.10;;
53714;SDS011;39608;55.630;37.864;2023-04-25T15:09:04;2.65;;;1.67;;
53714;SDS011;39608;55.630;37.864;2023-04-25T15:14:06;8.18;;;2.00;;
53714;SDS011;39608;55.630;37.864;2023-04-25T15:19:10;3.50;;;1.80;;
53714;SDS011;39608;55.630;37.864;2023-04-25T15:24:12;10.82;;;2.28;;
53714;SDS011;39608;55.630;37.864;2023-04-25T15:29:15;8.88;;;1.70;;
53714;SDS011;39608;55.630;37.864;2023-04-25T15:34:19;3.08;;;1.85;;
53714;SDS011;39608;55.630;37.864;2023-04-25T15:39:21;2.42;;;2.00;;
53714;SDS011;39608;55.630;37.864;2023-04-25T15:44:23;6.22;;;1.77;;
53714;SDS011;39608;55.630;37.864;2023-04-25T15:49:27;8.05;;;2.00;;
53714;SDS011;39608;55.630;37.864;2023-04-25T15:54:29;7.43;;;2.08;;
53714;SDS011;39608;55.630;37.864;2023-04-25T15:59:31;6.70;;;2.25;;
53714;SDS011;39608;55.630;37.864;2023-04-25T16:04:34;9.10;;;1.92;;
53714;SDS011;39608;55.630;37.864;2023-04-25T16:09:37;2.33;;;1.90;;
53714;SDS011;39608;55.630;37.864;2023-04-25T16:14:39;3.95;;;2.17;;
53714;SDS011;39608;55.630;37.864;2023-04-25T16:19:43;4.85;;;2.47;;
53714;SDS011;39608;55.630;37.864;2023-04-25T16:24:45;13.38;;;2.88;;
53714;SDS011;39608;55.630;37.864;2023-04-25T16:29:47;4.78;;;2.30;;
53714;SDS011;39608;55.630;37.864;2023-04-25T16:34:52;13.65;;;2.90;;
53714;SDS011;39608;55.630;37.864;2023-04-25T16:39:54;4.50;;;2.50;;
53714;SDS011;39608;55.630;37.864;2023-04-25T16:44:56;11.98;;;2.40;;
53714;SDS011;39608;55.630;37.864;2023-04-25T16:50:00;4.65;;;1.90;;
53714;SDS011;39608;55.630;37.864;2023-04-25T16:55:05;3.22;;;2.00;;
53714;SDS011;39608;55.630;37.864;2023-04-25T17:00:08;5.00;;;2.30;;
53714;SDS011;39608;55.630;37.864;2023-04-25T17:05:14;6.65;;;2.03;;
53714;SDS011;39608;55.630;37.864;2023-04-25T17:10:16;6.80;;;2.13;;
53714;SDS011;39608;55.630;37.864;2023-04-25T17:15:19;19.88;;;2.17;;
53714;SDS011;39608;55.630;37.864;2023-04-25T17:20:23;7.18;;;2.30;;
53714;SDS011;39608;55.630;37.864;2023-04-25T17:25:25;10.32;;;2.63;;
53714;SDS011;39608;55.630;37.864;2023-04-25T17:30:27;6.55;;;2.05;;
53714;SDS011;39608;55.630;37.864;2023-04-25T17:35:31;4.72;;;2.28;;
53714;SDS011;39608;55.630;37.864;2023-04-25T17:40:34;7.25;;;3.00;;
53714;SDS011;39608;55.630;37.864;2023-04-25T17:45:36;4.28;;;3.05;;
53714;SDS011;39608;55.630;37.864;2023-04-25T17:50:40;9.95;;;2.75;;
53714;SDS011;39608;55.630;37.864;2023-04-25T17:55:42;8.18;;;2.55;;
53714;SDS011;39608;55.630;37.864;2023-04-25T18:00:44;4.15;;;2.70;;
53714;SDS011;39608;55.630;37.864;2023-04-25T18:05:47;7.50;;;3.45;;
53714;SDS011;39608;55.630;37.864;2023-04-25T18:10:49;13.80;;;3.97;;
53714;SDS011;39608;55.630;37.864;2023-04-25T18:15:53;9.18;;;3.47;;
53714;SDS011;39608;55.630;37.864;2023-04-25T18:20:58;5.35;;;3.35;;
53714;SDS011;39608;55.630;37.864;2023-04-25T18:26:03;14.00;;;3.27;;
53714;SDS011;39608;55.630;37.864;2023-04-25T18:31:10;6.50;;;3.67;;
53714;SDS011;39608;55.630;37.864;2023-04-25T18:36:17;12.38;;;3.67;;
53714;SDS011;39608;55.630;37.864;2023-04-25T18:41:19;10.63;;;3.72;;
53714;SDS011;39608;55.630;37.864;2023-04-25T18:46:23;11.13;;;3.53;;
53714;SDS011;39608;55.630;37.864;2023-04-25T18:51:27;10.07;;;3.90;;
53714;SDS011;39608;55.630;37.864;2023-04-25T18:56:30;9.88;;;3.88;;
53714;SDS011;39608;55.630;37.864;2023-04-25T19:01:33;10.52;;;4.57;;
53714;SDS011;39608;55.630;37.864;2023-04-25T19:06:37;6.25;;;3.83;;
53714;SDS011;39608;55.630;37.864;2023-04-25T19:11:39;7.35;;;4.13;;
53714;SDS011;39608;55.630;37.864;2023-04-25T19:16:41;7.38;;;3.97;;
53714;SDS011;39608;55.630;37.864;2023-04-25T19:21:45;6.05;;;3.92;;
53714;SDS011;39608;55.630;37.864;2023-04-25T19:26:49;12.10;;;3.90;;
53714;SDS011;39608;55.630;37.864;2023-04-25T19:31:52;8.55;;;3.67;;
53714;SDS011;39608;55.630;37.864;2023-04-25T19:36:58;7.95;;;4.38;;
53714;SDS011;39608;55.630;37.864;2023-04-25T19:42:00;6.65;;;4.13;;
53714;SDS011;39608;55.630;37.864;2023-04-25T19:47:03;5.15;;;3.70;;
53714;SDS011;39608;55.630;37.864;2023-04-25T19:52:07;6.43;;;4.13;;
53714;SDS011;39608;55.630;37.864;2023-04-25T19:57:14;7.03;;;3.70;;
53714;SDS011;39608;55.630;37.864;2023-04-25T20:02:16;3.15;;;2.63;;
53714;SDS011;39608;55.630;37.864;2023-04-25T20:07:21;4.85;;;2.53;;
53714;SDS011;39608;55.630;37.864;2023-04-25T20:12:24;9.98;;;2.47;;
53714;SDS011;39608;55.630;37.864;2023-04-25T20:17:26;8.32;;;2.15;;
53714;SDS011;39608;55.630;37.864;2023-04-25T20:22:29;7.45;;;2.33;;
53714;SDS011;39608;55.630;37.864;2023-04-25T20:27:35;3.45;;;2.33;;
53714;SDS011;39608;55.630;37.864;2023-04-25T20:32:38;4.78;;;2.70;;
53714;SDS011;39608;55.630;37.864;2023-04-25T20:37:42;3.13;;;2.78;;
53714;SDS011;39608;55.630;37.864;2023-04-25T20:42:44;4.97;;;2.88;;
53714;SDS011;39608;55.630;37.864;2023-04-25T20:47:46;4.43;;;2.72;;
53714;SDS011;39608;55.630;37.864;2023-04-25T20:52:50;4.82;;;2.70;;
53714;SDS011;39608;55.630;37.864;2023-04-25T20:57:52;8.30;;;2.60;;
53714;SDS011;39608;55.630;37.864;2023-04-25T21:02:55;5.95;;;2.80;;
53714;SDS011;39608;55.630;37.864;2023-04-25T21:07:59;8.63;;;2.70;;
53714;SDS011;39608;55.630;37.864;2023-04-25T21:13:02;4.20;;;2.70;;
53714;SDS011;39608;55.630;37.864;2023-04-25T21:18:04;3.70;;;2.55;;
53714;SDS011;39608;55.630;37.864;2023-04-25T21:23:08;3.90;;;2.58;;
53714;SDS011;39608;55.630;37.864;2023-04-25T21:28:10;6.60;;;2.78;;
53714;SDS011;39608;55.630;37.864;2023-04-25T21:33:12;4.88;;;2.72;;
53714;SDS011;39608;55.630;37.864;2023-04-25T21:38:15;3.97;;;3.15;;
53714;SDS011;39608;55.630;37.864;2023-04-25T21:43:18;3.55;;;2.40;;
53714;SDS011;39608;55.630;37.864;2023-04-25T21:48:20;6.10;;;2.63;;
53714;SDS011;39608;55.630;37.864;2023-04-25T21:53:24;9.30;;;2.95;;
53714;SDS011;39608;55.630;37.864;2023-04-25T21:58:26;4.72;;;2.50;;
53714;SDS011;39608;55.630;37.864;2023-04-25T22:03:28;6.25;;;2.75;;
53714;SDS011;39608;55.630;37.864;2023-04-25T22:13:35;3.65;;;2.47;;
53714;SDS011;39608;55.630;37.864;2023-04-25T22:18:37;3.85;;;2.40;;
53714;SDS011;39608;55.630;37.864;2023-04-25T22:23:42;5.05;;;2.58;;
53714;SDS011;39608;55.630;37.864;2023-04-25T22:28:44;2.80;;;2.15;;
53714;SDS011;39608;55.630;37.864;2023-04-25T22:33:46;2.58;;;2.10;;
53714;SDS011;39608;55.630;37.864;2023-04-25T22:38:50;6.05;;;2.92;;
53714;SDS011;39608;55.630;37.864;2023-04-25T22:43:53;4.50;;;2.63;;
53714;SDS011;39608;55.630;37.864;2023-04-25T22:48:55;2.85;;;2.15;;
53714;SDS011;39608;55.630;37.864;2023-04-25T22:53:58;3.45;;;2.60;;
53714;SDS011;39608;55.630;37.864;2023-04-25T22:59:00;7.72;;;2.75;;
53714;SDS011;39608;55.630;37.864;2023-04-25T23:04:03;6.97;;;2.72;;
53714;SDS011;39608;55.630;37.864;2023-04-25T23:09:08;4.10;;;2.20;;
53714;SDS011;39608;55.630;37.864;2023-04-25T23:14:11;4.18;;;2.13;;
53714;SDS011;39608;55.630;37.864;2023-04-25T23:19:14;3.10;;;2.38;;
53714;SDS011;39608;55.630;37.864;2023-04-25T23:24:17;2.72;;;2.00;;
53714;SDS011;39608;55.630;37.864;2023-04-25T23:29:19;2.22;;;1.70;;
53714;SDS011;39608;55.630;37.864;2023-04-25T23:34:21;1.90;;;1.70;;
53714;SDS011;39608;55.630;37.864;2023-04-25T23:39:25;4.00;;;2.20;;
53714;SDS011;39608;55.630;37.864;2023-04-25T23:44:28;2.83;;;2.35;;
53714;SDS011;39608;55.630;37.864;2023-04-25T23:49:30;3.88;;;2.03;;
53714;SDS011;39608;55.630;37.864;2023-04-25T23:54:34;8.13;;;2.30;;
53714;SDS011;39608;55.630;37.864;2023-04-25T23:59:36;2.53;;;2.25;;
